Airfield :
LOGIN :

Register | Disclaimer

   EN    FR    IT 

 










Legend :    VFR   Marginal VFR   IFR   Intensive IFR   Very Intensive IFR
Visi :
Ceiling :
>= 8 km
>= 3000ft
5 to 8 km
1000 to 3000 ft
1500m to 5 km
500 to 1000 ft
800 to 1500m
200 to 500 ft
< 800m
< 200 ft
Symbols :   Thunderstorms  Fog  Heavy snow  Heavy precipitations  Wind > 20 kt
SIGMETs :     Misc.  Thunderstorms  Icing  Turbulence  Mountain Waves  Volcanic Ashes







- Airport Elevation : 126 ft
- IATA code : WIC
- Download approach charts


EGPC - Wick

CURRENT METAR :
  • 220020Z AUTO 35008KT 9999 BKN011/// 07/06 Q1026

EXPIRED METARs :
  • 212350Z AUTO 35008KT 9999 OVC014/// 07/06 Q1025
  • 212320Z AUTO 35007KT 9999 BKN016/// 07/06 Q1025
  • 212250Z AUTO 35008KT 9999 BKN015/// 07/06 Q1025
  • 212220Z AUTO 35009KT 9999 SCT014/// BKN018/// BKN049/// 07/06 Q1025
  • 212150Z AUTO 35009KT 9999 FEW010/// BKN015/// 07/06 Q1025

TAF TAF EGPC
Valid from the 22 at 00:00 until the 22 at 09:00 UTC


212255Z 2200/2209 01012KT 9999 SCT020
PROB40
TEMPO 2200/2209 6000 -RADZ BKN006
ATIS : +44 1955 607 596
No reported NOTAMs for that airfield.



MET'MAP, your aeronautical weather chart ! - Copyright ORBIFLY December 2007 - Disclaimer

ORBIFLY MET'MAP TEAM :

Programming & Development : Alexandra Zaïnal
Concept & Development : Baudouin d'Aumeries
Co-Development & Prog : Marc-Olivier Méhu
Technical & hardware support : Manuel Goepfert

Contact : metmap@orbifly.com




SOURCES & CREDITS :

   NOAA